createdAt,value
2023-02-24T00:00:56.678Z,3.60
2023-02-24T00:03:26.130Z,3.13
2023-02-24T00:05:55.610Z,3.60
2023-02-24T00:08:25.196Z,4.03
2023-02-24T00:10:57.676Z,2.87
2023-02-24T00:13:27.053Z,5.80
2023-02-24T00:16:03.874Z,6.40
2023-02-24T00:18:34.422Z,6.00
2023-02-24T00:21:10.894Z,5.87
2023-02-24T00:23:41.329Z,8.37
2023-02-24T00:26:14.720Z,7.53
2023-02-24T00:28:44.411Z,4.47
2023-02-24T00:31:16.069Z,4.27
2023-02-24T00:33:47.288Z,3.83
2023-02-24T00:36:23.778Z,9.53
2023-02-24T00:38:55.751Z,11.10
2023-02-24T00:41:29.738Z,5.10
2023-02-24T00:44:05.938Z,3.20
2023-02-24T00:46:38.057Z,5.07
2023-02-24T00:49:12.662Z,5.13
2023-02-24T00:51:44.410Z,7.07
2023-02-24T00:54:16.104Z,9.13
2023-02-24T00:56:50.463Z,7.43
2023-02-24T00:59:22.356Z,6.07
2023-02-24T01:01:51.969Z,7.10
2023-02-24T01:04:21.947Z,13.10
2023-02-24T01:07:00.441Z,9.50
2023-02-24T01:09:31.515Z,6.47
2023-02-24T01:12:16.071Z,11.27
2023-02-24T01:14:47.717Z,6.20
2023-02-24T01:17:18.369Z,7.53
2023-02-24T01:19:49.701Z,7.83
2023-02-24T01:22:21.132Z,4.30
2023-02-24T01:24:51.019Z,2.87
2023-02-24T01:27:23.005Z,4.83
2023-02-24T01:29:53.817Z,5.50
2023-02-24T01:32:25.487Z,8.37
2023-02-24T01:34:56.213Z,7.23
2023-02-24T01:37:25.877Z,13.97
2023-02-24T01:39:55.802Z,7.77
2023-02-24T01:42:27.959Z,12.27
2023-02-24T01:45:16.708Z,5.50
2023-02-24T01:47:47.343Z,7.83
2023-02-24T01:50:21.596Z,7.40
2023-02-24T01:52:56.196Z,12.20
2023-02-24T01:55:29.399Z,12.83
2023-02-24T01:58:04.745Z,8.00
2023-02-24T02:00:45.398Z,15.57
2023-02-24T02:03:24.672Z,5.80
2023-02-24T02:05:56.107Z,9.40
2023-02-24T02:08:26.401Z,5.00
2023-02-24T02:11:00.381Z,4.60
2023-02-24T02:13:35.983Z,3.70
2023-02-24T02:16:35.353Z,10.20
2023-02-24T02:19:18.755Z,10.03
2023-02-24T02:22:11.183Z,8.47
2023-02-24T02:24:48.477Z,16.87
2023-02-24T02:27:31.718Z,9.10
2023-02-24T02:30:34.014Z,6.53
2023-02-24T02:33:39.491Z,4.03
2023-02-24T02:36:16.666Z,7.63
2023-02-24T02:38:54.110Z,8.13
2023-02-24T02:41:28.550Z,3.80
2023-02-24T02:44:07.559Z,9.43
2023-02-24T02:46:42.055Z,13.73
2023-02-24T02:49:17.657Z,6.07
2023-02-24T02:51:51.832Z,6.67
2023-02-24T02:54:27.304Z,9.07
2023-02-24T02:57:01.803Z,6.83
2023-02-24T02:59:32.697Z,7.10
2023-02-24T03:02:11.822Z,9.53
2023-02-24T03:04:44.171Z,7.80
2023-02-24T03:07:17.842Z,7.23
2023-02-24T03:09:50.005Z,4.23
2023-02-24T03:12:22.127Z,6.10
2023-02-24T03:14:56.750Z,10.30
2023-02-24T03:17:28.250Z,3.23
2023-02-24T03:20:15.017Z,5.30
2023-02-24T03:22:51.791Z,5.87
2023-02-24T03:25:24.284Z,3.53
2023-02-24T03:27:56.844Z,5.23
2023-02-24T03:30:30.610Z,4.27
2023-02-24T03:33:05.641Z,2.30
2023-02-24T03:35:38.908Z,9.23
2023-02-24T03:38:10.959Z,14.47
2023-02-24T03:40:43.357Z,3.87
2023-02-24T03:43:16.961Z,5.77
2023-02-24T03:45:46.822Z,20.97
2023-02-24T03:48:17.363Z,5.83
2023-02-24T03:50:46.965Z,13.23
2023-02-24T03:53:32.247Z,6.30
2023-02-24T03:56:10.947Z,2.93
2023-02-24T03:58:47.210Z,3.53
2023-02-24T04:01:21.012Z,3.03
2023-02-24T04:03:58.935Z,5.20
2023-02-24T04:06:35.417Z,4.47
2023-02-24T04:09:12.391Z,3.93
2023-02-24T04:11:47.009Z,3.40
2023-02-24T04:14:25.102Z,5.73
2023-02-24T04:17:01.201Z,6.10
2023-02-24T04:19:33.820Z,3.93
2023-02-24T04:22:04.026Z,4.20
2023-02-24T04:24:37.029Z,11.93
2023-02-24T04:27:09.044Z,11.80
2023-02-24T04:29:47.137Z,5.73
2023-02-24T04:32:17.427Z,7.63
2023-02-24T04:34:47.000Z,1.60
2023-02-24T04:37:16.401Z,6.40
2023-02-24T04:39:48.724Z,5.27
2023-02-24T04:42:20.019Z,11.43
2023-02-24T04:44:49.730Z,14.97
2023-02-24T04:47:19.180Z,4.80
2023-02-24T04:49:48.643Z,10.83
2023-02-24T04:52:20.778Z,7.67
2023-02-24T04:54:52.786Z,3.67
2023-02-24T04:57:22.169Z,3.40
2023-02-24T04:59:53.890Z,2.23
2023-02-24T05:02:25.851Z,9.13
2023-02-24T05:04:55.373Z,2.43
2023-02-24T05:07:25.342Z,5.40
2023-02-24T05:09:58.355Z,5.47
2023-02-24T05:12:29.478Z,5.53
2023-02-24T05:15:01.362Z,5.47
2023-02-24T05:17:30.821Z,7.37
2023-02-24T05:20:12.720Z,5.83
2023-02-24T05:22:42.156Z,8.10
2023-02-24T05:25:14.612Z,4.70
2023-02-24T05:27:44.033Z,1.53
2023-02-24T05:30:15.022Z,2.00
2023-02-24T05:32:45.370Z,15.87
2023-02-24T05:35:14.792Z,5.30
2023-02-24T05:37:44.711Z,4.67
2023-02-24T05:40:19.927Z,2.30
2023-02-24T05:42:51.941Z,2.87
2023-02-24T05:45:21.313Z,4.55
2023-02-24T05:47:50.699Z,16.10
2023-02-24T05:50:26.338Z,2.30
2023-02-24T05:52:56.007Z,3.37
2023-02-24T05:55:27.995Z,2.37
2023-02-24T05:57:59.248Z,3.47
2023-02-24T06:00:28.685Z,2.97
2023-02-24T06:03:08.381Z,4.10
2023-02-24T06:05:39.814Z,8.63
2023-02-24T06:08:11.873Z,2.72
2023-02-24T06:10:46.753Z,5.83
2023-02-24T06:13:16.203Z,6.97
2023-02-24T06:15:50.592Z,3.70
2023-02-24T06:18:21.567Z,2.53
2023-02-24T06:20:51.399Z,10.82
2023-02-24T06:23:20.797Z,2.00
2023-02-24T06:25:53.299Z,2.22
2023-02-24T06:28:22.728Z,3.10
2023-02-24T06:30:52.156Z,11.95
2023-02-24T06:33:22.470Z,5.30
2023-02-24T06:35:53.404Z,11.32
2023-02-24T06:38:22.860Z,8.05
2023-02-24T06:40:57.591Z,7.65
2023-02-24T06:43:27.442Z,6.00
2023-02-24T06:45:56.908Z,3.67
2023-02-24T06:48:28.030Z,4.80
2023-02-24T06:50:57.841Z,3.05
2023-02-24T06:53:27.339Z,12.35
2023-02-24T06:56:03.104Z,7.70
2023-02-24T06:58:32.677Z,7.53
2023-02-24T07:01:04.651Z,9.50
2023-02-24T07:03:47.484Z,14.73
2023-02-24T07:06:24.073Z,4.60
2023-02-24T07:08:54.763Z,4.53
2023-02-24T07:11:27.570Z,8.73
2023-02-24T07:13:57.902Z,7.88
2023-02-24T07:16:29.339Z,6.55
2023-02-24T07:19:02.886Z,8.23
2023-02-24T07:21:39.568Z,8.73
2023-02-24T07:24:10.028Z,6.47
2023-02-24T07:26:43.847Z,4.30
2023-02-24T07:29:16.797Z,8.13
2023-02-24T07:31:46.460Z,6.50
2023-02-24T07:34:23.514Z,5.80
2023-02-24T07:36:54.670Z,6.35
2023-02-24T07:39:25.698Z,3.38
2023-02-24T07:41:59.369Z,8.20
2023-02-24T07:44:29.443Z,2.03
2023-02-24T07:46:59.529Z,3.30
2023-02-24T07:49:30.456Z,5.25
2023-02-24T07:52:00.582Z,14.88
2023-02-24T07:54:31.066Z,2.42
2023-02-24T07:57:03.294Z,3.38
2023-02-24T07:59:35.245Z,5.85
2023-02-24T08:02:07.904Z,12.07
2023-02-24T08:04:41.134Z,4.80
2023-02-24T08:07:14.472Z,3.05
2023-02-24T08:10:09.925Z,4.65
2023-02-24T08:12:43.166Z,3.97
2023-02-24T08:15:24.232Z,3.15
2023-02-24T08:17:59.577Z,3.92
2023-02-24T08:20:30.121Z,3.15
2023-02-24T08:22:59.674Z,1.85
2023-02-24T08:25:36.076Z,6.35
2023-02-24T08:28:11.761Z,12.75
2023-02-24T08:30:45.675Z,3.25
2023-02-24T08:33:18.546Z,5.47
2023-02-24T08:35:48.037Z,3.67
2023-02-24T08:38:20.413Z,6.93
2023-02-24T08:40:58.603Z,5.00
2023-02-24T08:43:35.466Z,8.45
2023-02-24T08:46:13.226Z,2.13
2023-02-24T08:48:46.479Z,3.45
2023-02-24T08:51:23.141Z,7.47
2023-02-24T08:53:54.561Z,2.05
2023-02-24T08:56:28.999Z,2.75
2023-02-24T08:59:05.695Z,6.05
2023-02-24T09:01:37.425Z,3.88
2023-02-24T09:04:09.798Z,3.65
2023-02-24T09:06:44.085Z,4.65
2023-02-24T09:09:21.324Z,4.25
2023-02-24T09:11:56.334Z,3.53
2023-02-24T09:14:30.328Z,9.43
2023-02-24T09:17:11.380Z,5.20
2023-02-24T09:19:57.501Z,6.38
2023-02-24T09:22:41.016Z,8.70
2023-02-24T09:25:24.114Z,5.05
2023-02-24T09:27:56.076Z,9.15
2023-02-24T09:30:51.204Z,15.80
2023-02-24T09:33:23.198Z,13.32
2023-02-24T09:36:03.172Z,7.28
2023-02-24T09:38:58.002Z,10.65
2023-02-24T09:41:45.328Z,15.13
2023-02-24T09:44:18.828Z,8.73
2023-02-24T09:46:56.447Z,9.05
2023-02-24T09:49:39.980Z,8.20
2023-02-24T09:52:17.181Z,6.38
2023-02-24T09:55:18.538Z,14.93
2023-02-24T09:58:27.047Z,7.07
2023-02-24T10:01:21.075Z,16.95
2023-02-24T10:04:14.852Z,9.68
2023-02-24T10:06:50.939Z,10.52
2023-02-24T10:09:26.701Z,26.50
2023-02-24T10:12:04.721Z,14.52
2023-02-24T10:14:44.400Z,12.23
2023-02-24T10:17:30.766Z,2.78
2023-02-24T10:20:14.036Z,8.25
2023-02-24T10:22:50.790Z,3.40
2023-02-24T10:25:36.432Z,10.05
2023-02-24T10:28:13.120Z,5.38
2023-02-24T10:30:50.078Z,8.80
2023-02-24T10:33:25.401Z,7.72
2023-02-24T10:36:09.669Z,7.90
2023-02-24T10:38:40.885Z,8.77
2023-02-24T10:41:12.421Z,9.27
2023-02-24T10:43:48.732Z,3.88
2023-02-24T10:46:40.081Z,5.37
2023-02-24T10:49:16.852Z,5.73
2023-02-24T10:51:54.154Z,4.60
2023-02-24T10:54:39.338Z,5.83
2023-02-24T10:57:15.873Z,3.80
2023-02-24T10:59:58.571Z,4.77
2023-02-24T11:02:33.036Z,8.10
2023-02-24T11:05:27.348Z,3.77
2023-02-24T11:08:15.857Z,3.63
2023-02-24T11:11:07.006Z,5.93
2023-02-24T11:13:49.433Z,8.23
2023-02-24T11:16:31.570Z,50.10
2023-02-24T11:19:01.017Z,12.03
2023-02-24T11:21:31.871Z,21.13
2023-02-24T11:24:04.168Z,17.17
2023-02-24T11:26:38.439Z,6.90
2023-02-24T11:29:22.991Z,7.13
2023-02-24T11:32:02.540Z,3.77
2023-02-24T11:34:37.258Z,12.27
2023-02-24T11:37:16.639Z,4.77
2023-02-24T11:39:56.051Z,4.30
2023-02-24T11:42:28.805Z,5.97
2023-02-24T11:45:02.786Z,10.63
2023-02-24T11:47:38.010Z,3.40
2023-02-24T11:50:26.671Z,9.20
2023-02-24T11:52:57.515Z,6.40
2023-02-24T11:55:35.031Z,3.53
2023-02-24T11:58:06.447Z,5.43
2023-02-24T12:00:39.913Z,10.37
2023-02-24T12:03:18.313Z,4.23
2023-02-24T12:05:51.643Z,9.67
2023-02-24T12:08:26.830Z,10.90
2023-02-24T12:11:01.783Z,8.20
2023-02-24T12:13:38.337Z,4.73
2023-02-24T12:16:12.607Z,17.07
2023-02-24T12:18:45.324Z,12.70
2023-02-24T12:21:20.229Z,6.57
2023-02-24T12:23:51.020Z,7.50
2023-02-24T12:26:25.619Z,12.63
2023-02-24T12:29:10.891Z,7.67
2023-02-24T12:31:50.978Z,9.47
2023-02-24T12:34:30.113Z,9.20
2023-02-24T12:37:32.955Z,12.83
2023-02-24T12:40:11.832Z,11.10
2023-02-24T12:42:48.972Z,12.87
2023-02-24T12:45:21.627Z,15.53
2023-02-24T12:47:58.532Z,11.70
2023-02-24T12:50:37.449Z,14.23
2023-02-24T12:53:13.928Z,14.57
2023-02-24T12:55:47.554Z,9.63
2023-02-24T12:58:22.622Z,10.50
2023-02-24T13:00:59.648Z,21.30
2023-02-24T13:03:39.954Z,17.50
2023-02-24T13:06:14.427Z,10.33
2023-02-24T13:08:53.368Z,11.37
2023-02-24T13:11:31.015Z,11.40
2023-02-24T13:14:08.889Z,17.90
2023-02-24T13:16:38.917Z,17.33
2023-02-24T13:19:10.523Z,14.33
2023-02-24T13:21:40.060Z,15.80
2023-02-24T13:24:23.292Z,10.83
2023-02-24T13:26:52.784Z,21.53
2023-02-24T13:29:24.832Z,10.97
2023-02-24T13:31:56.329Z,29.03
2023-02-24T13:34:35.316Z,7.87
2023-02-24T13:37:04.694Z,38.83
2023-02-24T13:39:37.129Z,30.60
2023-02-24T13:42:09.357Z,7.63
2023-02-24T13:44:51.237Z,11.03
2023-02-24T13:47:45.609Z,16.90
2023-02-24T13:50:25.387Z,17.63
2023-02-24T13:53:06.561Z,22.60
2023-02-24T13:55:44.164Z,14.10
2023-02-24T13:58:40.767Z,23.50
2023-02-24T14:01:15.068Z,12.80
2023-02-24T14:03:46.312Z,47.87
2023-02-24T14:06:23.117Z,43.67
2023-02-24T14:08:55.570Z,13.13
2023-02-24T14:11:28.452Z,15.03
2023-02-24T14:13:59.369Z,23.73
2023-02-24T14:16:35.820Z,28.63
2023-02-24T14:19:06.492Z,17.03
2023-02-24T14:21:36.735Z,12.03
2023-02-24T14:24:12.417Z,12.90
2023-02-24T14:26:46.240Z,14.80
2023-02-24T14:29:17.254Z,9.03
2023-02-24T14:31:53.074Z,13.63
2023-02-24T14:34:25.047Z,8.83
2023-02-24T14:36:56.585Z,9.10
2023-02-24T14:39:27.349Z,16.07
2023-02-24T14:42:12.324Z,15.33
2023-02-24T14:44:44.651Z,18.90
2023-02-24T14:47:17.992Z,13.30
2023-02-24T14:49:55.976Z,28.10
2023-02-24T14:52:31.080Z,14.77
2023-02-24T14:55:02.716Z,20.87
2023-02-24T14:57:34.607Z,12.70
2023-02-24T15:00:12.169Z,10.57
2023-02-24T15:02:49.360Z,16.17
2023-02-24T15:05:19.559Z,9.87
2023-02-24T15:07:51.662Z,13.90
2023-02-24T15:10:24.490Z,14.00
2023-02-24T15:12:55.401Z,6.03
2023-02-24T15:15:27.143Z,7.63
2023-02-24T15:18:03.057Z,12.00
2023-02-24T15:20:35.634Z,6.00
2023-02-24T15:23:06.190Z,12.70
2023-02-24T15:25:45.301Z,10.13
2023-02-24T15:28:27.156Z,6.40
2023-02-24T15:31:02.554Z,4.63
2023-02-24T15:33:38.205Z,6.40
2023-02-24T15:36:21.886Z,5.70
2023-02-24T15:38:54.651Z,7.47
2023-02-24T15:41:24.377Z,14.90
2023-02-24T15:43:56.352Z,6.60
2023-02-24T15:46:31.044Z,11.20
2023-02-24T15:49:04.613Z,5.93
2023-02-24T15:51:37.568Z,12.27
2023-02-24T15:54:09.276Z,9.93
2023-02-24T15:56:39.081Z,10.50
2023-02-24T15:59:08.740Z,8.10
2023-02-24T16:01:38.491Z,12.87
2023-02-24T16:04:11.297Z,15.00
2023-02-24T16:06:42.393Z,11.23
2023-02-24T16:09:15.527Z,12.23
2023-02-24T16:11:50.144Z,18.60
2023-02-24T16:14:20.367Z,8.47
2023-02-24T16:16:49.913Z,9.87
2023-02-24T16:19:22.403Z,9.73
2023-02-24T16:21:51.840Z,9.73
2023-02-24T16:24:21.749Z,8.20
2023-02-24T16:26:51.758Z,8.63
2023-02-24T16:29:21.475Z,6.57
2023-02-24T16:31:51.327Z,15.33
2023-02-24T16:34:23.478Z,9.70
2023-02-24T16:36:53.394Z,13.20
2023-02-24T16:39:25.580Z,12.73
2023-02-24T16:41:55.005Z,5.20
2023-02-24T16:44:25.317Z,9.20
2023-02-24T16:46:54.722Z,12.83
2023-02-24T16:49:26.746Z,20.40
2023-02-24T16:51:56.124Z,7.60
2023-02-24T16:54:29.126Z,7.80
2023-02-24T16:56:59.071Z,18.03
2023-02-24T16:59:29.031Z,12.90
2023-02-24T17:01:59.569Z,13.30
2023-02-24T17:04:32.153Z,14.17
2023-02-24T17:07:01.639Z,23.90
2023-02-24T17:09:33.329Z,13.93
2023-02-24T17:12:02.972Z,15.80
2023-02-24T17:14:32.371Z,13.40
2023-02-24T17:17:01.941Z,16.10
2023-02-24T17:19:33.938Z,23.90
2023-02-24T17:22:03.762Z,14.93
2023-02-24T17:24:33.825Z,18.03
2023-02-24T17:27:04.411Z,23.27
2023-02-24T17:29:33.883Z,13.60
2023-02-24T17:32:03.957Z,24.47
2023-02-24T17:34:38.822Z,20.50
2023-02-24T17:37:08.456Z,31.70
2023-02-24T17:39:37.930Z,25.37
2023-02-24T17:42:07.455Z,22.17
2023-02-24T17:44:37.367Z,25.00
2023-02-24T17:47:08.993Z,24.53
2023-02-24T17:49:41.304Z,28.43
2023-02-24T17:52:11.351Z,21.47
2023-02-24T17:54:40.797Z,27.07
2023-02-24T17:57:11.022Z,22.07
2023-02-24T17:59:40.881Z,30.20
2023-02-24T18:02:10.306Z,30.90
2023-02-24T18:04:42.971Z,25.03
2023-02-24T18:07:13.448Z,27.50
2023-02-24T18:09:43.099Z,21.67
2023-02-24T18:12:12.546Z,24.13
2023-02-24T18:14:42.292Z,30.90
2023-02-24T18:17:11.673Z,44.40
2023-02-24T18:19:43.845Z,25.97
2023-02-24T18:22:13.275Z,24.50
2023-02-24T18:24:42.687Z,23.70
2023-02-24T18:27:12.187Z,31.70
2023-02-24T18:29:41.777Z,35.83
2023-02-24T18:32:11.686Z,25.73
2023-02-24T18:34:43.763Z,45.33
2023-02-24T18:37:13.478Z,42.87
2023-02-24T18:39:42.893Z,33.57
2023-02-24T18:42:12.383Z,30.20
2023-02-24T18:44:41.817Z,36.63
2023-02-24T18:47:11.772Z,20.33
2023-02-24T18:49:43.823Z,40.93
2023-02-24T18:52:14.379Z,55.87
2023-02-24T18:54:43.771Z,37.27
2023-02-24T18:57:13.749Z,33.93
2023-02-24T18:59:43.180Z,25.57
2023-02-24T19:02:13.223Z,42.67
2023-02-24T19:04:46.105Z,44.93
2023-02-24T19:07:15.884Z,29.43
2023-02-24T19:09:45.598Z,25.90
2023-02-24T19:12:15.050Z,20.83
2023-02-24T19:14:45.742Z,25.33
2023-02-24T19:17:18.425Z,19.83
2023-02-24T19:19:50.860Z,23.80
2023-02-24T19:22:20.978Z,23.07
2023-02-24T19:24:50.473Z,30.47
2023-02-24T19:27:21.272Z,28.40
2023-02-24T19:29:54.353Z,21.63
2023-02-24T19:32:24.054Z,30.10
2023-02-24T19:34:58.634Z,24.50
2023-02-24T19:37:28.239Z,30.60
2023-02-24T19:39:57.902Z,30.73
2023-02-24T19:42:27.566Z,25.03
2023-02-24T19:44:59.873Z,32.70
2023-02-24T19:47:29.310Z,37.47
2023-02-24T19:50:04.587Z,38.03
2023-02-24T19:52:34.066Z,19.93
2023-02-24T19:55:03.485Z,24.90
2023-02-24T19:57:32.887Z,35.43
2023-02-24T20:00:02.304Z,31.63
2023-02-24T20:02:31.966Z,30.63
2023-02-24T20:05:04.108Z,22.60
2023-02-24T20:07:33.494Z,31.93
2023-02-24T20:10:03.229Z,30.40
2023-02-24T20:12:32.619Z,39.57
2023-02-24T20:15:02.417Z,23.83
2023-02-24T20:17:32.416Z,24.63
2023-02-24T20:20:04.565Z,17.40
2023-02-24T20:22:34.340Z,17.10
2023-02-24T20:25:03.725Z,16.83
2023-02-24T20:27:34.035Z,21.90
2023-02-24T20:30:03.811Z,20.20
2023-02-24T20:32:33.359Z,8.30
2023-02-24T20:35:05.700Z,13.70
2023-02-24T20:37:35.660Z,15.00
2023-02-24T20:40:05.480Z,29.00
2023-02-24T20:42:34.856Z,15.07
2023-02-24T20:45:04.258Z,13.50
2023-02-24T20:47:33.751Z,27.03
2023-02-24T20:50:06.681Z,18.63
2023-02-24T20:52:37.672Z,23.27
2023-02-24T20:55:07.723Z,9.77
2023-02-24T20:57:37.282Z,13.40
2023-02-24T21:00:08.304Z,28.03
2023-02-24T21:02:40.355Z,14.53
2023-02-24T21:05:20.653Z,10.50
2023-02-24T21:07:52.000Z,23.83
2023-02-24T21:10:22.930Z,25.40
2023-02-24T21:12:52.643Z,16.83
2023-02-24T21:15:22.332Z,10.10
2023-02-24T21:17:51.969Z,14.27
2023-02-24T21:20:24.509Z,26.20
2023-02-24T21:22:54.693Z,14.20
2023-02-24T21:25:24.450Z,22.90
2023-02-24T21:27:54.137Z,11.60
2023-02-24T21:30:24.043Z,7.67
2023-02-24T21:32:53.731Z,13.17
2023-02-24T21:35:26.066Z,15.70
2023-02-24T21:37:55.592Z,22.03
2023-02-24T21:40:25.115Z,16.53
2023-02-24T21:42:54.841Z,19.97
2023-02-24T21:45:24.594Z,5.83
2023-02-24T21:47:54.367Z,4.50
2023-02-24T21:50:26.488Z,5.37
2023-02-24T21:52:56.197Z,11.70
2023-02-24T21:55:26.064Z,3.20
2023-02-24T21:57:56.369Z,9.73
2023-02-24T22:00:26.266Z,5.20
2023-02-24T22:02:58.199Z,3.67
2023-02-24T22:05:30.589Z,5.50
2023-02-24T22:08:00.178Z,9.33
2023-02-24T22:10:29.647Z,4.20
2023-02-24T22:13:01.580Z,6.80
2023-02-24T22:15:31.379Z,2.90
2023-02-24T22:18:01.053Z,1.80
2023-02-24T22:20:33.391Z,5.80
2023-02-24T22:23:02.898Z,7.43
2023-02-24T22:25:32.327Z,5.23
2023-02-24T22:28:02.163Z,7.50
2023-02-24T22:30:32.087Z,2.30
2023-02-24T22:33:01.809Z,1.90
2023-02-24T22:35:36.388Z,2.93
2023-02-24T22:40:08.276Z,1.80
2023-02-24T22:42:36.357Z,5.37
2023-02-24T22:45:04.562Z,3.73
2023-02-24T22:47:32.715Z,2.17
2023-02-24T22:50:00.826Z,2.23
2023-02-24T22:54:35.646Z,2.00
2023-02-24T22:57:03.691Z,7.10
2023-02-24T22:59:32.332Z,3.10
2023-02-24T23:02:00.873Z,4.10
2023-02-24T23:04:29.127Z,2.70
2023-02-24T23:06:57.273Z,4.53
2023-02-24T23:09:25.855Z,2.47
2023-02-24T23:11:57.901Z,8.33
2023-02-24T23:14:27.266Z,2.10
2023-02-24T23:16:58.810Z,4.03
2023-02-24T23:19:28.312Z,10.07
2023-02-24T23:21:57.721Z,3.97
2023-02-24T23:24:27.174Z,8.43
2023-02-24T23:27:00.092Z,3.87
2023-02-24T23:29:30.768Z,4.00
2023-02-24T23:32:00.693Z,4.60
2023-02-24T23:34:30.136Z,3.63
2023-02-24T23:36:59.583Z,6.33
2023-02-24T23:39:29.002Z,3.40
2023-02-24T23:42:01.086Z,5.50
2023-02-24T23:44:30.522Z,6.57
2023-02-24T23:47:01.244Z,4.00
2023-02-24T23:49:46.147Z,1.93
2023-02-24T23:52:17.127Z,2.83
2023-02-24T23:54:46.569Z,9.47
2023-02-24T23:57:18.612Z,9.00
2023-02-24T23:59:48.039Z,9.50
